sensor_id;sensor_type;location;lat;lon;timestamp;P1;durP1;ratioP1;P2;durP2;ratioP2
34876;SDS011;21086;44.780;17.194;2022-12-17T00:01:28;16.30;;;11.93;;
34876;SDS011;21086;44.780;17.194;2022-12-17T00:04:14;12.02;;;8.30;;
34876;SDS011;21086;44.780;17.194;2022-12-17T00:06:59;8.30;;;6.60;;
34876;SDS011;21086;44.780;17.194;2022-12-17T00:09:45;9.95;;;7.03;;
34876;SDS011;21086;44.780;17.194;2022-12-17T00:12:31;8.00;;;5.60;;
34876;SDS011;21086;44.780;17.194;2022-12-17T00:15:17;7.50;;;4.80;;
34876;SDS011;21086;44.780;17.194;2022-12-17T00:18:06;8.75;;;5.95;;
34876;SDS011;21086;44.780;17.194;2022-12-17T00:20:55;6.38;;;4.43;;
34876;SDS011;21086;44.780;17.194;2022-12-17T00:23:43;6.97;;;4.70;;
34876;SDS011;21086;44.780;17.194;2022-12-17T00:26:30;9.55;;;6.13;;
34876;SDS011;21086;44.780;17.194;2022-12-17T00:29:17;7.25;;;5.78;;
34876;SDS011;21086;44.780;17.194;2022-12-17T00:32:03;8.00;;;5.57;;
34876;SDS011;21086;44.780;17.194;2022-12-17T00:34:48;7.50;;;5.25;;
34876;SDS011;21086;44.780;17.194;2022-12-17T00:37:35;5.63;;;3.30;;
34876;SDS011;21086;44.780;17.194;2022-12-17T00:40:21;4.32;;;2.88;;
34876;SDS011;21086;44.780;17.194;2022-12-17T00:43:08;5.30;;;3.42;;
34876;SDS011;21086;44.780;17.194;2022-12-17T00:45:56;5.45;;;3.13;;
34876;SDS011;21086;44.780;17.194;2022-12-17T00:48:42;4.35;;;2.60;;
34876;SDS011;21086;44.780;17.194;2022-12-17T00:51:28;3.63;;;2.10;;
34876;SDS011;21086;44.780;17.194;2022-12-17T00:54:14;4.93;;;3.63;;
34876;SDS011;21086;44.780;17.194;2022-12-17T00:57:10;5.80;;;2.75;;
34876;SDS011;21086;44.780;17.194;2022-12-17T00:59:55;5.32;;;2.83;;
34876;SDS011;21086;44.780;17.194;2022-12-17T01:02:41;4.68;;;2.60;;
34876;SDS011;21086;44.780;17.194;2022-12-17T01:05:26;4.57;;;2.40;;
34876;SDS011;21086;44.780;17.194;2022-12-17T01:08:12;2.88;;;2.00;;
34876;SDS011;21086;44.780;17.194;2022-12-17T01:10:59;3.70;;;2.30;;
34876;SDS011;21086;44.780;17.194;2022-12-17T01:13:49;3.40;;;2.45;;
34876;SDS011;21086;44.780;17.194;2022-12-17T01:16:35;4.45;;;2.67;;
34876;SDS011;21086;44.780;17.194;2022-12-17T01:19:21;4.35;;;2.70;;
34876;SDS011;21086;44.780;17.194;2022-12-17T01:22:07;4.50;;;3.20;;
34876;SDS011;21086;44.780;17.194;2022-12-17T01:24:52;4.57;;;3.10;;
34876;SDS011;21086;44.780;17.194;2022-12-17T01:27:38;5.53;;;2.60;;
34876;SDS011;21086;44.780;17.194;2022-12-17T01:30:23;2.40;;;1.65;;
34876;SDS011;21086;44.780;17.194;2022-12-17T01:33:09;2.70;;;1.65;;
34876;SDS011;21086;44.780;17.194;2022-12-17T01:35:56;2.75;;;1.52;;
34876;SDS011;21086;44.780;17.194;2022-12-17T01:38:42;2.70;;;1.42;;
34876;SDS011;21086;44.780;17.194;2022-12-17T01:41:28;7.30;;;4.68;;
34876;SDS011;21086;44.780;17.194;2022-12-17T01:47:44;4.57;;;2.88;;
34876;SDS011;21086;44.780;17.194;2022-12-17T01:50:34;3.90;;;2.88;;
34876;SDS011;21086;44.780;17.194;2022-12-17T01:53:23;3.15;;;1.70;;
34876;SDS011;21086;44.780;17.194;2022-12-17T01:56:13;2.72;;;1.90;;
34876;SDS011;21086;44.780;17.194;2022-12-17T01:58:59;2.05;;;1.33;;
34876;SDS011;21086;44.780;17.194;2022-12-17T02:01:45;2.47;;;1.50;;
34876;SDS011;21086;44.780;17.194;2022-12-17T02:04:31;2.65;;;1.75;;
34876;SDS011;21086;44.780;17.194;2022-12-17T02:10:33;2.63;;;1.70;;
34876;SDS011;21086;44.780;17.194;2022-12-17T02:13:29;1.67;;;1.20;;
34876;SDS011;21086;44.780;17.194;2022-12-17T02:16:30;2.60;;;1.80;;
34876;SDS011;21086;44.780;17.194;2022-12-17T02:19:29;2.58;;;1.55;;
34876;SDS011;21086;44.780;17.194;2022-12-17T02:22:43;2.40;;;1.30;;
34876;SDS011;21086;44.780;17.194;2022-12-17T02:25:52;2.58;;;1.70;;
34876;SDS011;21086;44.780;17.194;2022-12-17T02:28:44;2.28;;;1.48;;
34876;SDS011;21086;44.780;17.194;2022-12-17T02:31:33;2.42;;;1.67;;
34876;SDS011;21086;44.780;17.194;2022-12-17T02:34:22;2.15;;;1.52;;
34876;SDS011;21086;44.780;17.194;2022-12-17T02:37:07;2.40;;;1.98;;
34876;SDS011;21086;44.780;17.194;2022-12-17T02:39:52;1.90;;;1.33;;
34876;SDS011;21086;44.780;17.194;2022-12-17T02:42:38;3.58;;;1.98;;
34876;SDS011;21086;44.780;17.194;2022-12-17T02:45:25;2.72;;;1.80;;
34876;SDS011;21086;44.780;17.194;2022-12-17T02:48:11;2.75;;;1.85;;
34876;SDS011;21086;44.780;17.194;2022-12-17T02:50:57;3.28;;;1.92;;
34876;SDS011;21086;44.780;17.194;2022-12-17T02:53:44;3.70;;;2.00;;
34876;SDS011;21086;44.780;17.194;2022-12-17T02:56:30;3.40;;;2.22;;
34876;SDS011;21086;44.780;17.194;2022-12-17T02:59:15;3.38;;;2.72;;
34876;SDS011;21086;44.780;17.194;2022-12-17T03:02:01;3.67;;;2.70;;
34876;SDS011;21086;44.780;17.194;2022-12-17T03:04:47;3.25;;;2.38;;
34876;SDS011;21086;44.780;17.194;2022-12-17T03:07:52;2.95;;;2.33;;
34876;SDS011;21086;44.780;17.194;2022-12-17T03:10:38;2.80;;;2.10;;
34876;SDS011;21086;44.780;17.194;2022-12-17T03:13:24;4.75;;;3.00;;
34876;SDS011;21086;44.780;17.194;2022-12-17T03:16:14;3.58;;;2.53;;
34876;SDS011;21086;44.780;17.194;2022-12-17T03:19:03;4.75;;;2.85;;
34876;SDS011;21086;44.780;17.194;2022-12-17T03:21:49;4.13;;;2.70;;
34876;SDS011;21086;44.780;17.194;2022-12-17T03:24:34;4.00;;;2.70;;
34876;SDS011;21086;44.780;17.194;2022-12-17T03:27:23;3.38;;;2.60;;
34876;SDS011;21086;44.780;17.194;2022-12-17T03:30:09;3.97;;;2.53;;
34876;SDS011;21086;44.780;17.194;2022-12-17T03:33:01;4.68;;;2.85;;
34876;SDS011;21086;44.780;17.194;2022-12-17T03:35:46;5.85;;;2.85;;
34876;SDS011;21086;44.780;17.194;2022-12-17T03:38:32;5.53;;;2.90;;
34876;SDS011;21086;44.780;17.194;2022-12-17T03:41:18;4.72;;;3.15;;
34876;SDS011;21086;44.780;17.194;2022-12-17T03:44:03;4.03;;;3.08;;
34876;SDS011;21086;44.780;17.194;2022-12-17T03:46:48;3.85;;;2.83;;
34876;SDS011;21086;44.780;17.194;2022-12-17T03:49:34;6.03;;;3.50;;
34876;SDS011;21086;44.780;17.194;2022-12-17T03:52:20;5.00;;;2.88;;
34876;SDS011;21086;44.780;17.194;2022-12-17T03:55:06;5.72;;;3.28;;
34876;SDS011;21086;44.780;17.194;2022-12-17T03:57:52;5.20;;;3.30;;
34876;SDS011;21086;44.780;17.194;2022-12-17T04:00:38;4.65;;;3.33;;
34876;SDS011;21086;44.780;17.194;2022-12-17T04:03:23;4.65;;;3.33;;
34876;SDS011;21086;44.780;17.194;2022-12-17T04:06:09;5.60;;;3.35;;
34876;SDS011;21086;44.780;17.194;2022-12-17T04:08:55;5.95;;;4.15;;
34876;SDS011;21086;44.780;17.194;2022-12-17T04:11:40;7.10;;;4.25;;
34876;SDS011;21086;44.780;17.194;2022-12-17T04:14:25;7.15;;;4.53;;
34876;SDS011;21086;44.780;17.194;2022-12-17T04:17:11;6.72;;;4.40;;
34876;SDS011;21086;44.780;17.194;2022-12-17T04:19:57;7.28;;;4.53;;
34876;SDS011;21086;44.780;17.194;2022-12-17T04:22:43;7.38;;;5.10;;
34876;SDS011;21086;44.780;17.194;2022-12-17T04:25:28;8.35;;;5.55;;
34876;SDS011;21086;44.780;17.194;2022-12-17T04:28:14;7.45;;;5.10;;
34876;SDS011;21086;44.780;17.194;2022-12-17T04:30:59;10.15;;;6.15;;
34876;SDS011;21086;44.780;17.194;2022-12-17T04:33:46;8.80;;;5.65;;
34876;SDS011;21086;44.780;17.194;2022-12-17T04:36:31;11.60;;;7.13;;
34876;SDS011;21086;44.780;17.194;2022-12-17T04:39:16;10.45;;;6.82;;
34876;SDS011;21086;44.780;17.194;2022-12-17T04:42:02;12.55;;;7.88;;
34876;SDS011;21086;44.780;17.194;2022-12-17T04:44:47;11.07;;;7.35;;
34876;SDS011;21086;44.780;17.194;2022-12-17T04:47:33;12.75;;;8.25;;
34876;SDS011;21086;44.780;17.194;2022-12-17T04:50:18;13.88;;;7.40;;
34876;SDS011;21086;44.780;17.194;2022-12-17T04:53:04;10.27;;;7.30;;
34876;SDS011;21086;44.780;17.194;2022-12-17T04:55:52;11.27;;;7.70;;
34876;SDS011;21086;44.780;17.194;2022-12-17T04:58:38;13.25;;;9.13;;
34876;SDS011;21086;44.780;17.194;2022-12-17T05:01:24;11.43;;;7.18;;
34876;SDS011;21086;44.780;17.194;2022-12-17T05:04:10;10.10;;;6.75;;
34876;SDS011;21086;44.780;17.194;2022-12-17T05:06:55;10.77;;;7.85;;
34876;SDS011;21086;44.780;17.194;2022-12-17T05:09:41;10.20;;;7.40;;
34876;SDS011;21086;44.780;17.194;2022-12-17T05:12:27;13.50;;;7.90;;
34876;SDS011;21086;44.780;17.194;2022-12-17T05:15:12;12.02;;;8.57;;
34876;SDS011;21086;44.780;17.194;2022-12-17T05:18:05;20.70;;;10.90;;
34876;SDS011;21086;44.780;17.194;2022-12-17T05:20:51;14.48;;;9.48;;
34876;SDS011;21086;44.780;17.194;2022-12-17T05:23:58;13.55;;;8.77;;
34876;SDS011;21086;44.780;17.194;2022-12-17T05:26:43;14.73;;;9.10;;
34876;SDS011;21086;44.780;17.194;2022-12-17T05:29:29;13.77;;;8.80;;
34876;SDS011;21086;44.780;17.194;2022-12-17T05:32:14;13.63;;;9.00;;
34876;SDS011;21086;44.780;17.194;2022-12-17T05:35:00;13.85;;;8.73;;
34876;SDS011;21086;44.780;17.194;2022-12-17T05:37:46;12.15;;;8.98;;
34876;SDS011;21086;44.780;17.194;2022-12-17T05:40:31;16.55;;;11.48;;
34876;SDS011;21086;44.780;17.194;2022-12-17T05:43:17;34.88;;;15.88;;
34876;SDS011;21086;44.780;17.194;2022-12-17T05:46:04;14.57;;;9.27;;
34876;SDS011;21086;44.780;17.194;2022-12-17T05:48:50;14.98;;;9.52;;
34876;SDS011;21086;44.780;17.194;2022-12-17T05:51:35;23.90;;;14.23;;
34876;SDS011;21086;44.780;17.194;2022-12-17T05:54:21;29.08;;;16.08;;
34876;SDS011;21086;44.780;17.194;2022-12-17T05:57:07;15.40;;;9.80;;
34876;SDS011;21086;44.780;17.194;2022-12-17T05:59:52;16.30;;;10.55;;
34876;SDS011;21086;44.780;17.194;2022-12-17T06:02:38;19.13;;;11.77;;
34876;SDS011;21086;44.780;17.194;2022-12-17T06:05:24;16.38;;;10.32;;
34876;SDS011;21086;44.780;17.194;2022-12-17T06:08:09;15.98;;;10.82;;
34876;SDS011;21086;44.780;17.194;2022-12-17T06:10:56;16.92;;;11.02;;
34876;SDS011;21086;44.780;17.194;2022-12-17T06:13:43;20.67;;;11.82;;
34876;SDS011;21086;44.780;17.194;2022-12-17T06:16:28;17.30;;;11.88;;
34876;SDS011;21086;44.780;17.194;2022-12-17T06:19:14;16.02;;;10.82;;
34876;SDS011;21086;44.780;17.194;2022-12-17T06:22:00;17.75;;;11.05;;
34876;SDS011;21086;44.780;17.194;2022-12-17T06:24:45;21.58;;;12.13;;
34876;SDS011;21086;44.780;17.194;2022-12-17T06:27:31;18.10;;;11.57;;
34876;SDS011;21086;44.780;17.194;2022-12-17T06:30:16;25.52;;;14.00;;
34876;SDS011;21086;44.780;17.194;2022-12-17T06:33:06;16.17;;;10.95;;
34876;SDS011;21086;44.780;17.194;2022-12-17T06:35:54;16.17;;;11.40;;
34876;SDS011;21086;44.780;17.194;2022-12-17T06:38:48;17.13;;;10.57;;
34876;SDS011;21086;44.780;17.194;2022-12-17T06:41:34;16.90;;;11.48;;
34876;SDS011;21086;44.780;17.194;2022-12-17T06:44:29;17.70;;;11.27;;
34876;SDS011;21086;44.780;17.194;2022-12-17T06:47:15;18.42;;;11.18;;
34876;SDS011;21086;44.780;17.194;2022-12-17T06:50:00;19.40;;;13.60;;
34876;SDS011;21086;44.780;17.194;2022-12-17T06:52:46;21.00;;;14.68;;
34876;SDS011;21086;44.780;17.194;2022-12-17T06:55:31;20.50;;;14.18;;
34876;SDS011;21086;44.780;17.194;2022-12-17T06:58:17;19.55;;;12.65;;
34876;SDS011;21086;44.780;17.194;2022-12-17T07:01:03;19.23;;;12.05;;
34876;SDS011;21086;44.780;17.194;2022-12-17T07:03:49;17.75;;;11.52;;
34876;SDS011;21086;44.780;17.194;2022-12-17T07:06:35;14.35;;;9.75;;
34876;SDS011;21086;44.780;17.194;2022-12-17T07:09:20;18.60;;;13.32;;
34876;SDS011;21086;44.780;17.194;2022-12-17T07:12:06;18.98;;;13.13;;
34876;SDS011;21086;44.780;17.194;2022-12-17T07:14:52;19.20;;;12.40;;
34876;SDS011;21086;44.780;17.194;2022-12-17T07:17:38;19.75;;;11.80;;
34876;SDS011;21086;44.780;17.194;2022-12-17T07:20:24;19.52;;;12.80;;
34876;SDS011;21086;44.780;17.194;2022-12-17T07:23:09;14.60;;;10.85;;
34876;SDS011;21086;44.780;17.194;2022-12-17T07:25:56;16.67;;;11.57;;
34876;SDS011;21086;44.780;17.194;2022-12-17T07:28:41;18.10;;;12.05;;
34876;SDS011;21086;44.780;17.194;2022-12-17T07:31:27;21.25;;;13.85;;
34876;SDS011;21086;44.780;17.194;2022-12-17T07:34:12;21.65;;;14.13;;
34876;SDS011;21086;44.780;17.194;2022-12-17T07:36:58;20.27;;;12.98;;
34876;SDS011;21086;44.780;17.194;2022-12-17T07:39:45;18.42;;;12.30;;
34876;SDS011;21086;44.780;17.194;2022-12-17T07:42:31;20.73;;;13.82;;
34876;SDS011;21086;44.780;17.194;2022-12-17T07:45:16;21.45;;;13.32;;
34876;SDS011;21086;44.780;17.194;2022-12-17T07:48:02;19.65;;;13.68;;
34876;SDS011;21086;44.780;17.194;2022-12-17T07:50:48;36.35;;;19.38;;
34876;SDS011;21086;44.780;17.194;2022-12-17T07:53:34;25.48;;;14.57;;
34876;SDS011;21086;44.780;17.194;2022-12-17T07:56:20;30.35;;;18.02;;
34876;SDS011;21086;44.780;17.194;2022-12-17T07:59:05;19.73;;;13.70;;
34876;SDS011;21086;44.780;17.194;2022-12-17T08:01:51;24.17;;;16.85;;
34876;SDS011;21086;44.780;17.194;2022-12-17T08:04:37;21.58;;;13.93;;
34876;SDS011;21086;44.780;17.194;2022-12-17T08:07:23;37.33;;;20.55;;
34876;SDS011;21086;44.780;17.194;2022-12-17T08:10:09;81.38;;;37.10;;
34876;SDS011;21086;44.780;17.194;2022-12-17T08:12:55;39.83;;;22.58;;
34876;SDS011;21086;44.780;17.194;2022-12-17T08:15:42;73.72;;;36.55;;
34876;SDS011;21086;44.780;17.194;2022-12-17T08:18:27;23.25;;;14.13;;
34876;SDS011;21086;44.780;17.194;2022-12-17T08:21:13;20.85;;;14.43;;
34876;SDS011;21086;44.780;17.194;2022-12-17T08:23:58;32.67;;;19.02;;
34876;SDS011;21086;44.780;17.194;2022-12-17T08:26:44;19.90;;;13.40;;
34876;SDS011;21086;44.780;17.194;2022-12-17T08:29:29;19.80;;;12.75;;
34876;SDS011;21086;44.780;17.194;2022-12-17T08:32:15;16.90;;;11.75;;
34876;SDS011;21086;44.780;17.194;2022-12-17T08:35:00;21.20;;;16.00;;
34876;SDS011;21086;44.780;17.194;2022-12-17T08:37:46;17.63;;;13.50;;
34876;SDS011;21086;44.780;17.194;2022-12-17T08:40:31;21.58;;;14.70;;
34876;SDS011;21086;44.780;17.194;2022-12-17T08:43:17;22.17;;;13.05;;
34876;SDS011;21086;44.780;17.194;2022-12-17T08:46:03;26.60;;;18.13;;
34876;SDS011;21086;44.780;17.194;2022-12-17T08:48:49;32.70;;;21.08;;
34876;SDS011;21086;44.780;17.194;2022-12-17T08:51:35;24.33;;;15.15;;
34876;SDS011;21086;44.780;17.194;2022-12-17T08:54:20;32.20;;;22.08;;
34876;SDS011;21086;44.780;17.194;2022-12-17T08:57:05;28.92;;;20.73;;
34876;SDS011;21086;44.780;17.194;2022-12-17T08:59:58;26.60;;;17.50;;
34876;SDS011;21086;44.780;17.194;2022-12-17T09:02:44;39.80;;;25.25;;
34876;SDS011;21086;44.780;17.194;2022-12-17T09:05:30;41.17;;;23.33;;
34876;SDS011;21086;44.780;17.194;2022-12-17T09:08:15;33.35;;;20.65;;
34876;SDS011;21086;44.780;17.194;2022-12-17T09:11:01;24.83;;;16.27;;
34876;SDS011;21086;44.780;17.194;2022-12-17T09:13:47;24.50;;;16.02;;
34876;SDS011;21086;44.780;17.194;2022-12-17T09:16:38;19.58;;;13.00;;
34876;SDS011;21086;44.780;17.194;2022-12-17T09:19:26;26.52;;;16.33;;
34876;SDS011;21086;44.780;17.194;2022-12-17T09:22:17;32.47;;;20.05;;
34876;SDS011;21086;44.780;17.194;2022-12-17T09:25:03;26.30;;;17.23;;
34876;SDS011;21086;44.780;17.194;2022-12-17T09:27:49;24.50;;;15.55;;
34876;SDS011;21086;44.780;17.194;2022-12-17T09:30:35;49.35;;;27.25;;
34876;SDS011;21086;44.780;17.194;2022-12-17T09:33:21;34.95;;;19.98;;
34876;SDS011;21086;44.780;17.194;2022-12-17T09:36:06;38.08;;;22.00;;
34876;SDS011;21086;44.780;17.194;2022-12-17T09:38:52;36.40;;;21.20;;
34876;SDS011;21086;44.780;17.194;2022-12-17T09:41:43;34.25;;;20.10;;
34876;SDS011;21086;44.780;17.194;2022-12-17T09:50:42;33.22;;;22.23;;
34876;SDS011;21086;44.780;17.194;2022-12-17T09:53:33;24.17;;;16.73;;
34876;SDS011;21086;44.780;17.194;2022-12-17T09:56:29;32.08;;;19.75;;
34876;SDS011;21086;44.780;17.194;2022-12-17T09:59:36;43.75;;;25.70;;
34876;SDS011;21086;44.780;17.194;2022-12-17T10:02:23;39.20;;;25.00;;
34876;SDS011;21086;44.780;17.194;2022-12-17T10:05:27;29.77;;;20.45;;
34876;SDS011;21086;44.780;17.194;2022-12-17T10:08:26;27.45;;;19.27;;
34876;SDS011;21086;44.780;17.194;2022-12-17T10:11:20;35.78;;;23.27;;
34876;SDS011;21086;44.780;17.194;2022-12-17T10:14:22;32.65;;;22.33;;
34876;SDS011;21086;44.780;17.194;2022-12-17T10:17:20;31.25;;;21.27;;
34876;SDS011;21086;44.780;17.194;2022-12-17T10:23:04;27.20;;;17.48;;
34876;SDS011;21086;44.780;17.194;2022-12-17T10:25:50;30.05;;;20.30;;
34876;SDS011;21086;44.780;17.194;2022-12-17T10:28:38;40.75;;;23.73;;
34876;SDS011;21086;44.780;17.194;2022-12-17T10:31:25;31.80;;;19.90;;
34876;SDS011;21086;44.780;17.194;2022-12-17T10:34:15;43.15;;;26.17;;
34876;SDS011;21086;44.780;17.194;2022-12-17T10:37:03;38.58;;;24.27;;
34876;SDS011;21086;44.780;17.194;2022-12-17T10:39:54;32.67;;;20.85;;
34876;SDS011;21086;44.780;17.194;2022-12-17T10:42:42;40.20;;;25.55;;
34876;SDS011;21086;44.780;17.194;2022-12-17T10:45:30;29.35;;;19.08;;
34876;SDS011;21086;44.780;17.194;2022-12-17T10:48:21;32.65;;;21.38;;
34876;SDS011;21086;44.780;17.194;2022-12-17T10:54:17;46.92;;;27.65;;
34876;SDS011;21086;44.780;17.194;2022-12-17T11:00:13;24.50;;;15.75;;
34876;SDS011;21086;44.780;17.194;2022-12-17T11:06:39;30.52;;;22.13;;
34876;SDS011;21086;44.780;17.194;2022-12-17T11:09:57;29.55;;;16.40;;
34876;SDS011;21086;44.780;17.194;2022-12-17T11:13:02;28.90;;;17.30;;
34876;SDS011;21086;44.780;17.194;2022-12-17T11:16:00;24.77;;;16.10;;
34876;SDS011;21086;44.780;17.194;2022-12-17T11:18:50;24.65;;;15.90;;
34876;SDS011;21086;44.780;17.194;2022-12-17T11:21:43;21.33;;;13.77;;
34876;SDS011;21086;44.780;17.194;2022-12-17T11:24:42;22.92;;;12.68;;
34876;SDS011;21086;44.780;17.194;2022-12-17T11:27:41;17.23;;;11.57;;
34876;SDS011;21086;44.780;17.194;2022-12-17T11:30:29;23.45;;;14.43;;
34876;SDS011;21086;44.780;17.194;2022-12-17T11:33:43;20.88;;;13.60;;
34876;SDS011;21086;44.780;17.194;2022-12-17T11:37:02;22.17;;;15.05;;
34876;SDS011;21086;44.780;17.194;2022-12-17T11:40:06;20.23;;;13.90;;
34876;SDS011;21086;44.780;17.194;2022-12-17T11:49:38;22.60;;;13.93;;
34876;SDS011;21086;44.780;17.194;2022-12-17T11:55:37;23.27;;;15.45;;
34876;SDS011;21086;44.780;17.194;2022-12-17T11:58:39;18.52;;;14.13;;
34876;SDS011;21086;44.780;17.194;2022-12-17T12:04:46;18.27;;;13.00;;
34876;SDS011;21086;44.780;17.194;2022-12-17T12:07:52;16.25;;;11.43;;
34876;SDS011;21086;44.780;17.194;2022-12-17T12:17:25;13.75;;;8.68;;
34876;SDS011;21086;44.780;17.194;2022-12-17T12:20:33;15.68;;;10.43;;
34876;SDS011;21086;44.780;17.194;2022-12-17T12:27:12;22.30;;;14.95;;
34876;SDS011;21086;44.780;17.194;2022-12-17T12:30:14;27.75;;;17.55;;
34876;SDS011;21086;44.780;17.194;2022-12-17T12:36:34;21.77;;;13.65;;
34876;SDS011;21086;44.780;17.194;2022-12-17T12:39:32;20.10;;;13.73;;
34876;SDS011;21086;44.780;17.194;2022-12-17T12:52:21;32.17;;;20.23;;
34876;SDS011;21086;44.780;17.194;2022-12-17T12:55:09;28.75;;;17.83;;
34876;SDS011;21086;44.780;17.194;2022-12-17T13:00:59;20.20;;;12.18;;
34876;SDS011;21086;44.780;17.194;2022-12-17T13:06:50;32.28;;;20.77;;
34876;SDS011;21086;44.780;17.194;2022-12-17T13:14:32;22.30;;;14.65;;
34876;SDS011;21086;44.780;17.194;2022-12-17T13:19:43;23.10;;;16.10;;
34876;SDS011;21086;44.780;17.194;2022-12-17T13:24:52;26.40;;;19.08;;
34876;SDS011;21086;44.780;17.194;2022-12-17T13:27:40;35.00;;;22.90;;
34876;SDS011;21086;44.780;17.194;2022-12-17T13:38:41;38.13;;;23.05;;
34876;SDS011;21086;44.780;17.194;2022-12-17T13:41:25;23.13;;;16.92;;
34876;SDS011;21086;44.780;17.194;2022-12-17T13:44:42;24.55;;;16.42;;
34876;SDS011;21086;44.780;17.194;2022-12-17T13:47:19;25.20;;;16.65;;
34876;SDS011;21086;44.780;17.194;2022-12-17T13:50:13;22.10;;;16.35;;
34876;SDS011;21086;44.780;17.194;2022-12-17T13:53:08;25.95;;;17.02;;
34876;SDS011;21086;44.780;17.194;2022-12-17T13:55:50;23.08;;;14.90;;
34876;SDS011;21086;44.780;17.194;2022-12-17T14:01:05;24.23;;;15.90;;
34876;SDS011;21086;44.780;17.194;2022-12-17T14:03:35;27.50;;;17.98;;
34876;SDS011;21086;44.780;17.194;2022-12-17T14:06:23;19.27;;;12.98;;
34876;SDS011;21086;44.780;17.194;2022-12-17T14:08:54;23.45;;;15.50;;
34876;SDS011;21086;44.780;17.194;2022-12-17T14:11:22;20.98;;;14.20;;
34876;SDS011;21086;44.780;17.194;2022-12-17T14:14:10;20.05;;;13.15;;
34876;SDS011;21086;44.780;17.194;2022-12-17T14:16:49;19.63;;;13.50;;
34876;SDS011;21086;44.780;17.194;2022-12-17T14:19:16;23.55;;;15.55;;
34876;SDS011;21086;44.780;17.194;2022-12-17T14:21:47;24.98;;;16.27;;
34876;SDS011;21086;44.780;17.194;2022-12-17T14:24:14;22.02;;;14.73;;
34876;SDS011;21086;44.780;17.194;2022-12-17T14:26:50;21.02;;;13.85;;
34876;SDS011;21086;44.780;17.194;2022-12-17T14:29:22;19.38;;;13.88;;
34876;SDS011;21086;44.780;17.194;2022-12-17T14:31:53;32.00;;;20.80;;
34876;SDS011;21086;44.780;17.194;2022-12-17T14:34:22;38.67;;;24.55;;
34876;SDS011;21086;44.780;17.194;2022-12-17T14:36:54;51.67;;;28.73;;
34876;SDS011;21086;44.780;17.194;2022-12-17T14:39:30;29.27;;;18.98;;
34876;SDS011;21086;44.780;17.194;2022-12-17T14:42:05;24.35;;;14.20;;
34876;SDS011;21086;44.780;17.194;2022-12-17T14:47:24;29.33;;;18.40;;
34876;SDS011;21086;44.780;17.194;2022-12-17T14:49:57;20.40;;;13.82;;
34876;SDS011;21086;44.780;17.194;2022-12-17T14:55:00;20.60;;;13.25;;
34876;SDS011;21086;44.780;17.194;2022-12-17T14:57:30;17.92;;;11.82;;
34876;SDS011;21086;44.780;17.194;2022-12-17T14:59:59;20.05;;;13.18;;
34876;SDS011;21086;44.780;17.194;2022-12-17T15:02:27;23.85;;;14.82;;
34876;SDS011;21086;44.780;17.194;2022-12-17T15:05:02;39.38;;;27.98;;
34876;SDS011;21086;44.780;17.194;2022-12-17T15:07:29;22.77;;;15.30;;
34876;SDS011;21086;44.780;17.194;2022-12-17T15:10:00;21.73;;;13.63;;
34876;SDS011;21086;44.780;17.194;2022-12-17T15:12:39;19.88;;;13.35;;
34876;SDS011;21086;44.780;17.194;2022-12-17T15:15:12;19.42;;;13.10;;
34876;SDS011;21086;44.780;17.194;2022-12-17T15:17:40;19.15;;;13.60;;
34876;SDS011;21086;44.780;17.194;2022-12-17T15:20:09;29.55;;;19.45;;
34876;SDS011;21086;44.780;17.194;2022-12-17T15:22:45;22.20;;;15.10;;
34876;SDS011;21086;44.780;17.194;2022-12-17T15:25:20;24.05;;;16.38;;
34876;SDS011;21086;44.780;17.194;2022-12-17T15:27:50;29.80;;;18.58;;
34876;SDS011;21086;44.780;17.194;2022-12-17T15:30:17;34.72;;;20.88;;
34876;SDS011;21086;44.780;17.194;2022-12-17T15:32:47;29.85;;;21.05;;
34876;SDS011;21086;44.780;17.194;2022-12-17T15:35:17;28.73;;;19.60;;
34876;SDS011;21086;44.780;17.194;2022-12-17T15:37:44;25.85;;;17.70;;
34876;SDS011;21086;44.780;17.194;2022-12-17T15:40:11;26.95;;;17.95;;
34876;SDS011;21086;44.780;17.194;2022-12-17T15:42:38;26.98;;;20.08;;
34876;SDS011;21086;44.780;17.194;2022-12-17T15:45:31;41.30;;;25.05;;
34876;SDS011;21086;44.780;17.194;2022-12-17T15:47:58;27.92;;;17.77;;
34876;SDS011;21086;44.780;17.194;2022-12-17T15:50:25;35.28;;;22.80;;
34876;SDS011;21086;44.780;17.194;2022-12-17T15:52:52;57.45;;;36.67;;
34876;SDS011;21086;44.780;17.194;2022-12-17T15:55:19;43.90;;;26.70;;
34876;SDS011;21086;44.780;17.194;2022-12-17T15:57:46;35.08;;;19.15;;
34876;SDS011;21086;44.780;17.194;2022-12-17T16:00:13;33.03;;;20.58;;
34876;SDS011;21086;44.780;17.194;2022-12-17T16:02:41;30.17;;;20.20;;
34876;SDS011;21086;44.780;17.194;2022-12-17T16:05:08;26.77;;;18.63;;
34876;SDS011;21086;44.780;17.194;2022-12-17T16:07:35;26.85;;;17.83;;
34876;SDS011;21086;44.780;17.194;2022-12-17T16:10:06;28.77;;;18.52;;
34876;SDS011;21086;44.780;17.194;2022-12-17T16:12:34;22.73;;;15.65;;
34876;SDS011;21086;44.780;17.194;2022-12-17T16:15:01;20.75;;;14.95;;
34876;SDS011;21086;44.780;17.194;2022-12-17T16:17:28;26.80;;;16.55;;
34876;SDS011;21086;44.780;17.194;2022-12-17T16:19:56;23.67;;;14.55;;
34876;SDS011;21086;44.780;17.194;2022-12-17T16:22:23;26.08;;;18.20;;
34876;SDS011;21086;44.780;17.194;2022-12-17T16:24:50;25.45;;;18.23;;
34876;SDS011;21086;44.780;17.194;2022-12-17T16:27:17;24.60;;;15.80;;
34876;SDS011;21086;44.780;17.194;2022-12-17T16:29:45;20.33;;;14.00;;
34876;SDS011;21086;44.780;17.194;2022-12-17T16:32:13;26.90;;;17.30;;
34876;SDS011;21086;44.780;17.194;2022-12-17T16:34:42;31.27;;;19.35;;
34876;SDS011;21086;44.780;17.194;2022-12-17T16:37:09;24.70;;;16.08;;
34876;SDS011;21086;44.780;17.194;2022-12-17T16:39:36;26.73;;;16.77;;
34876;SDS011;21086;44.780;17.194;2022-12-17T16:42:03;25.67;;;16.77;;
34876;SDS011;21086;44.780;17.194;2022-12-17T16:44:31;23.27;;;14.98;;
34876;SDS011;21086;44.780;17.194;2022-12-17T16:46:58;25.27;;;14.30;;
34876;SDS011;21086;44.780;17.194;2022-12-17T16:49:25;24.92;;;13.70;;
34876;SDS011;21086;44.780;17.194;2022-12-17T16:51:52;26.67;;;14.43;;
34876;SDS011;21086;44.780;17.194;2022-12-17T16:54:23;33.45;;;22.15;;
34876;SDS011;21086;44.780;17.194;2022-12-17T16:56:51;25.70;;;15.55;;
34876;SDS011;21086;44.780;17.194;2022-12-17T16:59:19;24.27;;;15.85;;
34876;SDS011;21086;44.780;17.194;2022-12-17T17:01:48;26.90;;;16.15;;
34876;SDS011;21086;44.780;17.194;2022-12-17T17:04:17;25.23;;;15.57;;
34876;SDS011;21086;44.780;17.194;2022-12-17T17:06:47;29.85;;;18.35;;
34876;SDS011;21086;44.780;17.194;2022-12-17T17:09:22;30.00;;;19.10;;
34876;SDS011;21086;44.780;17.194;2022-12-17T17:11:53;31.70;;;20.42;;
34876;SDS011;21086;44.780;17.194;2022-12-17T17:14:21;32.80;;;20.75;;
34876;SDS011;21086;44.780;17.194;2022-12-17T17:16:49;29.88;;;18.88;;
34876;SDS011;21086;44.780;17.194;2022-12-17T17:19:17;23.50;;;14.95;;
34876;SDS011;21086;44.780;17.194;2022-12-17T17:21:48;29.08;;;18.20;;
34876;SDS011;21086;44.780;17.194;2022-12-17T17:24:18;24.75;;;18.48;;
34876;SDS011;21086;44.780;17.194;2022-12-17T17:26:50;24.15;;;16.20;;
34876;SDS011;21086;44.780;17.194;2022-12-17T17:29:18;30.73;;;18.65;;